Time;durP1;ratioP1;P1;durP2;ratioP2;P2;SDS_P1;SDS_P2;PMS_P1;PMS_P2;Temp;Humidity;BMP_temperature;BMP_pressure;BME280_temperature;BME280_humidity;BME280_pressure;Samples;Min_cycle;Max_cycle;Signal;HPM_P1;HPM_P2
2023/09/22 00:02:11;;;;;;;1.77;0.90;;;16.10;99.90;;;;;;5084069;28;20195;-64
2023/09/22 00:04:37;;;;;;;2.27;1.50;;;16.20;99.90;;;;;;5082692;28;20193;-64
2023/09/22 00:07:03;;;;;;;0.87;0.73;;;16.20;99.90;;;;;;5088484;28;20267;-64
2023/09/22 00:09:28;;;;;;;1.30;1.20;;;16.20;99.90;;;;;;5092838;28;20692;-63
2023/09/22 00:11:56;;;;;;;1.33;1.10;;;16.10;99.90;;;;;;5089203;28;20207;-64
2023/09/22 00:14:22;;;;;;;1.30;1.20;;;16.10;99.90;;;;;;5090476;28;20184;-63
2023/09/22 00:16:48;;;;;;;2.03;1.10;;;16.10;99.90;;;;;;5089005;28;20517;-63
2023/09/22 00:19:14;;;;;;;1.77;1.67;;;16.10;99.90;;;;;;5090268;28;20458;-64
2023/09/22 00:21:41;;;;;;;2.43;1.40;;;16.10;99.90;;;;;;5082779;28;20649;-63
2023/09/22 00:24:07;;;;;;;1.33;1.00;;;16.20;99.90;;;;;;5097729;28;20433;-63
2023/09/22 00:26:33;;;;;;;2.90;1.53;;;16.20;99.90;;;;;;5085529;28;20860;-64
2023/09/22 00:28:59;;;;;;;2.40;1.47;;;16.10;99.90;;;;;;5084492;28;20267;-63
2023/09/22 00:31:25;;;;;;;2.20;1.30;;;16.10;99.90;;;;;;5096299;28;20435;-63
2023/09/22 00:33:52;;;;;;;2.30;1.50;;;16.20;99.90;;;;;;5083701;28;20176;-63
2023/09/22 00:36:18;;;;;;;1.53;1.30;;;16.10;99.90;;;;;;5097856;28;20439;-63
2023/09/22 00:38:44;;;;;;;2.53;1.90;;;16.10;99.90;;;;;;5084491;28;20430;-63
2023/09/22 00:41:10;;;;;;;1.60;1.50;;;16.10;99.90;;;;;;5082108;28;20418;-63
2023/09/22 00:43:35;;;;;;;2.30;1.77;;;16.00;99.90;;;;;;5082639;28;20343;-63
2023/09/22 00:46:01;;;;;;;1.77;1.67;;;16.00;99.90;;;;;;5085454;28;20199;-63
2023/09/22 00:48:28;;;;;;;2.60;1.60;;;15.90;99.90;;;;;;5085800;28;20210;-63
2023/09/22 00:50:56;;;;;;;3.10;1.90;;;16.00;99.90;;;;;;5098760;28;20203;-63
2023/09/22 00:53:27;;;;;;;1.73;1.63;;;16.00;99.90;;;;;;5106220;28;20425;-63
2023/09/22 00:55:53;;;;;;;3.20;1.73;;;15.90;99.90;;;;;;5105530;28;21085;-63
2023/09/22 00:58:19;;;;;;;5.27;2.10;;;15.90;99.90;;;;;;5106129;28;20428;-63
2023/09/22 01:00:49;;;;;;;1.33;1.23;;;15.90;99.90;;;;;;5105704;28;20465;-63
2023/09/22 01:03:17;;;;;;;1.50;1.40;;;15.90;99.90;;;;;;5106280;28;20188;-63
2023/09/22 01:05:43;;;;;;;1.40;1.30;;;15.90;99.90;;;;;;5105979;28;20425;-63
2023/09/22 01:08:09;;;;;;;1.70;1.60;;;15.80;99.90;;;;;;5105885;28;20476;-63
2023/09/22 01:10:40;;;;;;;1.80;1.33;;;15.80;99.90;;;;;;5105925;28;20457;-63
2023/09/22 01:13:06;;;;;;;2.30;2.10;;;15.80;99.90;;;;;;5101133;28;20236;-63
2023/09/22 01:15:37;;;;;;;2.23;1.20;;;15.80;99.90;;;;;;5105437;28;20494;-64
2023/09/22 01:18:04;;;;;;;2.43;1.43;;;15.80;99.90;;;;;;5098387;28;20790;-64
2023/09/22 01:20:31;;;;;;;2.23;1.40;;;15.80;99.90;;;;;;5105642;28;20557;-64
2023/09/22 01:22:56;;;;;;;2.90;1.47;;;15.80;99.90;;;;;;5104974;28;20437;-63
2023/09/22 01:25:22;;;;;;;2.30;1.50;;;15.70;99.90;;;;;;5105725;28;20430;-63
2023/09/22 01:27:48;;;;;;;2.93;1.80;;;15.70;99.90;;;;;;5105199;28;20191;-63
2023/09/22 01:30:15;;;;;;;2.67;1.70;;;15.70;99.90;;;;;;5087215;28;20560;-63
2023/09/22 01:32:41;;;;;;;10.20;1.90;;;15.70;99.90;;;;;;5102006;28;20195;-62
2023/09/22 01:35:07;;;;;;;2.23;1.50;;;15.70;99.90;;;;;;5105189;28;20429;-63
2023/09/22 01:37:44;;;;;;;4.37;2.27;;;15.60;99.90;;;;;;5105295;28;20428;-63
2023/09/22 01:40:10;;;;;;;3.53;1.93;;;15.60;99.90;;;;;;5105190;28;20457;-63
2023/09/22 01:42:36;;;;;;;2.53;1.80;;;15.60;99.90;;;;;;5105916;28;20418;-64
2023/09/22 01:45:02;;;;;;;1.77;1.50;;;15.50;99.90;;;;;;5104406;28;20430;-63
2023/09/22 01:47:28;;;;;;;2.23;1.80;;;15.60;99.90;;;;;;5105424;28;20274;-63
2023/09/22 01:49:54;;;;;;;4.77;1.97;;;15.50;99.90;;;;;;5103868;28;21361;-63
2023/09/22 01:52:19;;;;;;;3.33;1.40;;;15.50;99.90;;;;;;5105247;28;20191;-63
2023/09/22 01:54:45;;;;;;;3.87;1.57;;;15.50;99.90;;;;;;5104367;28;20960;-63
2023/09/22 01:57:11;;;;;;;1.97;1.73;;;15.40;99.90;;;;;;5104418;28;20180;-64
2023/09/22 01:59:36;;;;;;;1.63;1.53;;;15.50;99.90;;;;;;5104669;28;20215;-64
2023/09/22 02:02:02;;;;;;;1.53;1.30;;;15.50;99.90;;;;;;5104350;28;20636;-63
2023/09/22 02:04:30;;;;;;;1.83;1.40;;;15.50;99.90;;;;;;5104670;28;20202;-63
2023/09/22 02:06:57;;;;;;;2.90;1.73;;;15.50;99.90;;;;;;5104239;28;20171;-63
2023/09/22 02:09:22;;;;;;;2.50;1.53;;;15.50;99.90;;;;;;5105079;28;20434;-63
2023/09/22 02:11:48;;;;;;;2.93;1.60;;;15.50;99.90;;;;;;5085564;28;20495;-62
2023/09/22 02:14:14;;;;;;;1.57;1.20;;;15.50;99.90;;;;;;5105302;28;20592;-63
2023/09/22 02:16:40;;;;;;;1.93;1.67;;;15.50;99.90;;;;;;5085906;28;20196;-63
2023/09/22 02:19:06;;;;;;;2.73;1.97;;;15.50;99.90;;;;;;5104436;28;20701;-63
2023/09/22 02:21:31;;;;;;;2.10;1.30;;;15.50;99.90;;;;;;5104409;28;20432;-63
2023/09/22 02:23:57;;;;;;;5.50;1.70;;;15.50;99.90;;;;;;5104016;28;20198;-63
2023/09/22 02:26:23;;;;;;;7.20;1.80;;;15.50;99.90;;;;;;5104539;28;20180;-63
2023/09/22 02:28:51;;;;;;;3.33;1.53;;;15.50;99.90;;;;;;5103832;28;20779;-63
2023/09/22 02:31:17;;;;;;;2.83;1.60;;;15.50;99.90;;;;;;5104390;28;20179;-63
2023/09/22 02:33:43;;;;;;;2.17;1.60;;;15.50;99.90;;;;;;5103827;28;20799;-63
2023/09/22 02:36:09;;;;;;;2.90;1.87;;;15.50;99.90;;;;;;5104425;28;20434;-63
2023/09/22 02:38:34;;;;;;;2.57;1.67;;;15.50;99.90;;;;;;5104400;28;20183;-64
2023/09/22 02:41:00;;;;;;;2.00;1.80;;;15.50;99.90;;;;;;5103314;28;20219;-64
2023/09/22 02:43:26;;;;;;;2.03;1.80;;;15.50;99.90;;;;;;5104210;28;20710;-63
2023/09/22 02:45:51;;;;;;;3.47;2.60;;;15.40;99.90;;;;;;5103582;28;20199;-63
2023/09/22 02:48:17;;;;;;;2.33;1.67;;;15.50;99.90;;;;;;5104177;28;20190;-63
2023/09/22 02:50:43;;;;;;;2.97;1.80;;;15.40;99.90;;;;;;5103427;28;20925;-62
2023/09/22 02:53:09;;;;;;;2.20;2.00;;;15.50;99.90;;;;;;5104793;28;20545;-64
2023/09/22 02:55:37;;;;;;;2.37;1.70;;;15.50;99.90;;;;;;5103679;28;20276;-64
2023/09/22 02:58:03;;;;;;;5.23;1.97;;;15.50;99.90;;;;;;5103268;28;20452;-63
2023/09/22 03:00:30;;;;;;;2.17;1.60;;;15.50;99.90;;;;;;5103690;28;20477;-63
2023/09/22 03:02:56;;;;;;;4.50;2.33;;;15.50;99.90;;;;;;5103595;28;20456;-63
2023/09/22 03:05:22;;;;;;;2.80;2.40;;;15.50;99.90;;;;;;5104038;28;20457;-63
2023/09/22 03:07:49;;;;;;;2.90;2.13;;;15.50;99.90;;;;;;5102734;28;20676;-63
2023/09/22 03:10:15;;;;;;;2.77;2.17;;;15.50;99.90;;;;;;5103952;28;20287;-63
2023/09/22 03:12:42;;;;;;;2.87;2.53;;;15.50;99.90;;;;;;5103280;28;20414;-63
2023/09/22 03:15:09;;;;;;;3.73;2.20;;;15.50;99.90;;;;;;5104292;28;20897;-63
2023/09/22 03:17:36;;;;;;;1.90;1.50;;;15.50;99.90;;;;;;5103337;28;20450;-63
2023/09/22 03:20:06;;;;;;;1.93;1.70;;;15.50;99.90;;;;;;5103473;28;20472;-64
2023/09/22 03:22:32;;;;;;;3.03;1.90;;;15.50;99.90;;;;;;5103628;28;20433;-63
2023/09/22 03:24:58;;;;;;;2.17;1.80;;;15.50;99.90;;;;;;5100582;28;20418;-63
2023/09/22 03:27:24;;;;;;;1.83;1.43;;;15.50;99.90;;;;;;5100761;28;20426;-63
2023/09/22 03:29:49;;;;;;;3.63;1.70;;;15.50;99.90;;;;;;5102422;28;20945;-63
2023/09/22 03:32:18;;;;;;;4.60;1.90;;;15.40;99.90;;;;;;5103279;28;20183;-63
2023/09/22 03:34:47;;;;;;;2.73;1.97;;;15.40;99.90;;;;;;5102681;28;20180;-63
2023/09/22 03:37:12;;;;;;;2.50;1.70;;;15.40;99.90;;;;;;5103585;28;20430;-63
2023/09/22 03:39:38;;;;;;;2.73;1.50;;;15.40;99.90;;;;;;5101380;28;20503;-63
2023/09/22 03:42:06;;;;;;;3.40;1.50;;;15.40;99.90;;;;;;5109197;27;20191;-63
2023/09/22 03:44:33;;;;;;;1.70;1.60;;;15.40;99.90;;;;;;5103458;28;20425;-63
2023/09/22 03:46:59;;;;;;;1.83;1.43;;;15.50;99.90;;;;;;5102488;28;21041;-63
2023/09/22 03:49:26;;;;;;;2.90;1.57;;;15.40;99.90;;;;;;5102823;28;20443;-63
2023/09/22 03:51:51;;;;;;;1.73;1.20;;;15.40;99.90;;;;;;5102325;28;20558;-63
2023/09/22 03:54:18;;;;;;;3.70;1.53;;;15.40;99.90;;;;;;5103241;28;20429;-63
2023/09/22 03:56:43;;;;;;;1.50;1.40;;;15.30;99.90;;;;;;5102291;28;20255;-63
2023/09/22 03:59:11;;;;;;;2.83;1.40;;;15.30;99.90;;;;;;5103295;28;20455;-64
2023/09/22 04:01:37;;;;;;;4.20;1.53;;;15.20;99.90;;;;;;5101939;28;20281;-63
2023/09/22 04:04:04;;;;;;;3.97;1.70;;;15.30;99.90;;;;;;5102568;28;20432;-63
2023/09/22 04:06:30;;;;;;;3.40;1.70;;;15.30;99.90;;;;;;5103215;28;20862;-63
2023/09/22 04:08:56;;;;;;;4.50;1.50;;;15.30;99.90;;;;;;5102411;28;20425;-63
2023/09/22 04:11:22;;;;;;;1.77;1.37;;;15.30;99.90;;;;;;5103239;28;20551;-63
2023/09/22 04:13:48;;;;;;;2.90;1.40;;;15.30;99.90;;;;;;5102039;28;20519;-63
2023/09/22 04:16:14;;;;;;;1.67;1.40;;;15.30;99.90;;;;;;5103190;28;21041;-63
2023/09/22 04:18:40;;;;;;;3.27;1.43;;;15.20;99.90;;;;;;5103462;28;21135;-63
2023/09/22 04:21:07;;;;;;;6.37;1.40;;;15.10;99.90;;;;;;5106865;28;20207;-63
2023/09/22 04:23:36;;;;;;;2.60;1.20;;;15.20;99.90;;;;;;5106273;28;20176;-63
2023/09/22 04:26:09;;;;;;;1.47;1.37;;;15.10;99.90;;;;;;5106537;28;20429;-63
2023/09/22 04:28:36;;;;;;;4.53;1.93;;;15.10;99.90;;;;;;5105996;28;20441;-63
2023/09/22 04:31:02;;;;;;;3.60;1.57;;;15.10;99.90;;;;;;5106524;28;20905;-63
2023/09/22 04:33:27;;;;;;;2.00;1.80;;;15.10;99.90;;;;;;5107016;28;20422;-63
2023/09/22 04:35:53;;;;;;;2.73;1.70;;;15.10;99.90;;;;;;5098213;28;20188;-63
2023/09/22 04:38:19;;;;;;;2.90;1.50;;;15.10;99.90;;;;;;5105379;28;20248;-63
2023/09/22 04:40:45;;;;;;;3.10;1.20;;;15.10;99.90;;;;;;5105526;28;20294;-63
2023/09/22 04:43:12;;;;;;;2.30;1.40;;;15.00;99.90;;;;;;5106369;28;20700;-63
2023/09/22 04:45:40;;;;;;;1.50;1.37;;;15.00;99.90;;;;;;5105430;28;20429;-63
2023/09/22 04:48:10;;;;;;;1.40;1.30;;;15.00;99.90;;;;;;5101355;28;20417;-63
2023/09/22 04:50:37;;;;;;;1.77;1.40;;;14.90;99.90;;;;;;5093928;28;20497;-63
2023/09/22 04:53:04;;;;;;;8.63;2.87;;;14.90;99.90;;;;;;5086485;28;20421;-63
2023/09/22 04:55:35;;;;;;;1.80;1.40;;;14.90;99.90;;;;;;5085189;28;20414;-63
2023/09/22 04:58:02;;;;;;;5.90;1.70;;;14.90;99.90;;;;;;5085373;28;20437;-63
2023/09/22 05:00:28;;;;;;;1.93;1.57;;;14.90;99.90;;;;;;5091117;28;20471;-63
2023/09/22 05:02:54;;;;;;;2.07;1.77;;;14.90;99.90;;;;;;5086652;28;20935;-63
2023/09/22 05:05:19;;;;;;;2.40;1.40;;;14.80;99.90;;;;;;5086303;28;20283;-63
2023/09/22 05:07:46;;;;;;;1.40;1.20;;;14.90;99.90;;;;;;5075728;28;20238;-63
2023/09/22 05:10:11;;;;;;;1.80;1.43;;;14.80;99.90;;;;;;5088463;28;20215;-63
2023/09/22 05:12:37;;;;;;;2.47;1.57;;;14.80;99.90;;;;;;5085027;28;20509;-63
2023/09/22 05:15:04;;;;;;;1.30;1.17;;;14.80;99.90;;;;;;5085658;28;20552;-63
2023/09/22 05:17:30;;;;;;;1.50;1.20;;;14.80;99.90;;;;;;5088778;28;20184;-63
2023/09/22 05:19:57;;;;;;;1.43;1.30;;;14.90;99.90;;;;;;5084845;28;21276;-63
2023/09/22 05:22:24;;;;;;;1.07;0.90;;;14.90;99.90;;;;;;5085508;28;20471;-63
2023/09/22 05:24:49;;;;;;;3.20;1.63;;;14.90;99.90;;;;;;5084868;28;20430;-63
2023/09/22 05:27:16;;;;;;;1.73;1.30;;;14.80;99.90;;;;;;5085695;28;21049;-63
2023/09/22 05:29:42;;;;;;;1.53;1.43;;;14.80;99.90;;;;;;5084366;28;20196;-63
2023/09/22 05:32:09;;;;;;;3.53;1.23;;;14.80;99.90;;;;;;5084058;28;20437;-63
2023/09/22 05:34:35;;;;;;;1.43;1.10;;;14.80;99.90;;;;;;5084481;28;20517;-63
2023/09/22 05:37:01;;;;;;;2.60;1.40;;;14.90;99.90;;;;;;5085175;28;20475;-63
2023/09/22 05:39:27;;;;;;;1.50;1.40;;;14.90;99.90;;;;;;5079575;28;20467;-63
2023/09/22 05:41:52;;;;;;;2.53;1.63;;;14.90;99.90;;;;;;5083940;28;20235;-63
2023/09/22 05:44:18;;;;;;;1.50;1.40;;;14.80;99.90;;;;;;5085220;28;20526;-64
2023/09/22 05:46:44;;;;;;;3.97;1.30;;;14.80;99.90;;;;;;5049287;28;20184;-63
2023/09/22 05:49:15;;;;;;;3.17;1.37;;;14.80;99.90;;;;;;5085067;28;20431;-63
2023/09/22 05:51:41;;;;;;;2.87;1.50;;;14.80;99.90;;;;;;5075482;28;20443;-63
2023/09/22 05:54:10;;;;;;;2.30;1.17;;;14.80;99.90;;;;;;5072840;28;20430;-63
2023/09/22 05:56:36;;;;;;;3.67;1.50;;;14.80;99.90;;;;;;5076226;28;20790;-63
2023/09/22 05:59:03;;;;;;;1.73;1.27;;;14.70;99.90;;;;;;5081267;28;20427;-63
2023/09/22 06:01:30;;;;;;;3.03;1.50;;;14.70;99.90;;;;;;5078435;28;20245;-62
2023/09/22 06:03:56;;;;;;;3.93;1.60;;;14.70;99.90;;;;;;5078497;28;20422;-63
2023/09/22 06:06:22;;;;;;;2.60;1.40;;;14.70;99.90;;;;;;5078452;28;20430;-63
2023/09/22 06:08:47;;;;;;;1.87;1.43;;;14.60;99.90;;;;;;5078567;28;20476;-63
2023/09/22 06:11:14;;;;;;;2.70;1.50;;;14.60;99.90;;;;;;5073033;28;20190;-63
2023/09/22 06:13:41;;;;;;;1.90;1.30;;;14.60;99.90;;;;;;5074497;28;20300;-63
2023/09/22 06:16:07;;;;;;;4.17;1.50;;;14.60;99.90;;;;;;5067089;28;20425;-63
2023/09/22 06:18:33;;;;;;;5.00;1.83;;;14.60;99.90;;;;;;5078804;28;21077;-63
2023/09/22 06:21:02;;;;;;;3.67;1.70;;;14.70;99.90;;;;;;5078691;28;20223;-63
2023/09/22 06:23:28;;;;;;;2.70;1.17;;;14.70;99.90;;;;;;5079441;28;20446;-62
2023/09/22 06:26:00;;;;;;;2.47;1.47;;;14.70;99.90;;;;;;5079015;28;20472;-63
2023/09/22 06:28:26;;;;;;;5.43;1.63;;;14.80;99.90;;;;;;5089561;28;20192;-64
2023/09/22 06:30:52;;;;;;;3.67;1.70;;;14.80;99.90;;;;;;5083551;28;20624;-64
2023/09/22 06:33:18;;;;;;;2.67;1.57;;;14.90;99.90;;;;;;5083501;28;20220;-63
2023/09/22 06:35:45;;;;;;;3.03;1.60;;;14.90;99.90;;;;;;5075716;28;21195;-64
2023/09/22 06:38:11;;;;;;;3.40;1.47;;;14.90;99.90;;;;;;5079895;28;20470;-63
2023/09/22 06:40:37;;;;;;;6.97;2.50;;;14.90;99.90;;;;;;5078661;28;20549;-64
2023/09/22 06:43:08;;;;;;;1.90;1.30;;;14.90;99.90;;;;;;5080037;28;20588;-64
2023/09/22 06:45:36;;;;;;;4.00;1.60;;;14.90;99.90;;;;;;5079017;28;20430;-64
2023/09/22 06:48:09;;;;;;;2.30;1.80;;;14.90;99.90;;;;;;5075110;28;20430;-64
2023/09/22 06:50:37;;;;;;;4.47;1.60;;;14.90;99.90;;;;;;5094090;27;20442;-63
2023/09/22 06:53:05;;;;;;;1.70;1.60;;;14.90;99.90;;;;;;5113043;27;20512;-63
2023/09/22 06:55:31;;;;;;;3.70;1.80;;;14.90;99.90;;;;;;5108870;27;20458;-64
2023/09/22 06:57:59;;;;;;;2.70;1.37;;;14.90;99.90;;;;;;5111040;27;20433;-63
2023/09/22 07:00:28;;;;;;;2.90;1.57;;;15.00;99.90;;;;;;5099716;27;20215;-63
2023/09/22 07:02:55;;;;;;;1.93;1.40;;;15.00;99.90;;;;;;5097922;28;20854;-64
2023/09/22 07:05:21;;;;;;;3.07;1.83;;;15.10;99.90;;;;;;5099225;28;20509;-63
2023/09/22 07:07:47;;;;;;;2.03;1.70;;;15.10;99.90;;;;;;5081558;28;20759;-64
2023/09/22 07:10:13;;;;;;;3.50;1.37;;;15.20;99.90;;;;;;5103802;28;20425;-63
2023/09/22 07:12:40;;;;;;;2.40;1.53;;;15.30;99.90;;;;;;5103195;28;20433;-64
2023/09/22 07:15:06;;;;;;;2.53;1.37;;;15.40;99.90;;;;;;5100066;28;20282;-64
2023/09/22 07:17:33;;;;;;;2.80;1.50;;;15.40;99.90;;;;;;5100481;28;20453;-63
2023/09/22 07:20:01;;;;;;;2.43;1.50;;;15.40;99.90;;;;;;5098557;28;20468;-63
2023/09/22 07:22:30;;;;;;;3.13;2.10;;;15.50;99.90;;;;;;5099362;28;20756;-63
2023/09/22 07:24:56;;;;;;;3.80;1.90;;;15.60;99.90;;;;;;5099293;28;20973;-63
2023/09/22 07:27:25;;;;;;;2.23;1.40;;;15.60;99.90;;;;;;5098172;28;20430;-64
2023/09/22 07:29:51;;;;;;;1.47;1.37;;;15.50;99.90;;;;;;5095092;28;20761;-63
2023/09/22 07:32:17;;;;;;;2.03;1.40;;;15.60;99.90;;;;;;5092509;28;20490;-63
2023/09/22 07:34:43;;;;;;;1.93;1.50;;;15.60;99.90;;;;;;5095256;28;20548;-63
2023/09/22 07:37:11;;;;;;;2.53;1.40;;;15.60;99.90;;;;;;5102876;27;20426;-63
2023/09/22 07:39:38;;;;;;;1.40;1.20;;;15.60;99.90;;;;;;5098331;28;20511;-63
2023/09/22 07:42:04;;;;;;;2.90;1.43;;;15.60;99.90;;;;;;5098195;28;20453;-64
2023/09/22 07:44:30;;;;;;;1.67;1.57;;;15.60;99.90;;;;;;5096615;28;20981;-63
2023/09/22 07:46:58;;;;;;;4.43;1.37;;;15.60;99.90;;;;;;5089686;28;20537;-64
2023/09/22 07:49:25;;;;;;;1.57;1.47;;;15.50;99.90;;;;;;5066463;28;20429;-63
2023/09/22 07:51:51;;;;;;;1.57;1.47;;;15.60;99.90;;;;;;5096803;28;20426;-63
2023/09/22 07:54:18;;;;;;;2.07;1.37;;;15.60;99.90;;;;;;5101454;28;20691;-63
2023/09/22 07:56:46;;;;;;;3.40;1.40;;;15.70;99.90;;;;;;5095895;28;20419;-63
2023/09/22 07:59:14;;;;;;;2.27;1.20;;;15.80;99.90;;;;;;5102409;28;20772;-63
2023/09/22 08:01:43;;;;;;;1.87;1.10;;;15.90;99.90;;;;;;5099619;28;20478;-63
2023/09/22 08:04:13;;;;;;;3.33;1.10;;;16.00;99.90;;;;;;5102519;28;20429;-63
2023/09/22 08:06:38;;;;;;;2.07;1.30;;;16.10;99.90;;;;;;5098644;28;20442;-64
2023/09/22 08:09:04;;;;;;;2.00;1.00;;;16.10;99.90;;;;;;5098525;28;20426;-63
2023/09/22 08:11:33;;;;;;;1.40;1.20;;;16.10;99.90;;;;;;5098737;28;20286;-64
2023/09/22 08:13:59;;;;;;;4.30;1.30;;;16.20;99.90;;;;;;5099258;28;20305;-64
2023/09/22 08:16:26;;;;;;;2.80;1.30;;;16.20;99.90;;;;;;5096991;28;20417;-64
2023/09/22 08:18:53;;;;;;;1.60;1.10;;;16.30;99.90;;;;;;5100990;28;20421;-64
2023/09/22 08:21:21;;;;;;;1.67;1.00;;;16.30;99.90;;;;;;5101410;28;20457;-63
2023/09/22 08:23:47;;;;;;;2.13;1.23;;;16.30;99.90;;;;;;5095958;28;20450;-64
2023/09/22 08:26:17;;;;;;;2.50;1.23;;;16.40;99.90;;;;;;5098299;28;20433;-64
2023/09/22 08:28:47;;;;;;;2.17;1.13;;;16.40;99.90;;;;;;5098696;28;20418;-64
2023/09/22 08:31:14;;;;;;;1.97;0.90;;;16.50;99.90;;;;;;5094391;28;20436;-63
2023/09/22 08:33:40;;;;;;;1.63;1.20;;;16.60;99.90;;;;;;5098892;28;20418;-64
2023/09/22 08:36:06;;;;;;;2.60;0.90;;;16.70;99.90;;;;;;5102013;28;21073;-63
2023/09/22 08:38:35;;;;;;;1.30;0.73;;;16.70;99.90;;;;;;5095895;28;20428;-64
2023/09/22 08:41:04;;;;;;;1.43;1.00;;;16.80;99.90;;;;;;5097450;28;21273;-64
2023/09/22 08:43:32;;;;;;;3.60;1.40;;;16.90;99.90;;;;;;5102481;28;20453;-63
2023/09/22 08:46:01;;;;;;;1.07;0.80;;;17.00;99.90;;;;;;5081822;28;20426;-64
2023/09/22 08:48:28;;;;;;;2.10;1.40;;;17.00;99.90;;;;;;5099047;28;20418;-64
2023/09/22 08:50:54;;;;;;;2.47;0.90;;;17.10;99.90;;;;;;5096192;28;20445;-64
2023/09/22 08:53:20;;;;;;;2.27;1.37;;;17.10;99.90;;;;;;5097950;28;20432;-64
2023/09/22 08:55:50;;;;;;;1.30;0.90;;;16.90;99.90;;;;;;5084273;28;20512;-64
2023/09/22 08:58:18;;;;;;;3.83;1.00;;;17.00;99.90;;;;;;5101597;28;20479;-63
2023/09/22 09:00:51;;;;;;;1.90;1.10;;;16.90;99.90;;;;;;5094459;28;20457;-64
2023/09/22 09:03:18;;;;;;;1.73;1.13;;;16.80;99.90;;;;;;5098102;28;20426;-64
2023/09/22 09:05:44;;;;;;;0.90;0.80;;;16.80;99.90;;;;;;5100060;28;20507;-63
2023/09/22 09:08:12;;;;;;;2.37;1.33;;;17.00;99.90;;;;;;5105464;28;21001;-63
2023/09/22 09:10:39;;;;;;;2.30;1.20;;;17.00;99.90;;;;;;5102046;28;20713;-64
2023/09/22 09:13:06;;;;;;;1.00;0.80;;;17.10;99.90;;;;;;5105420;28;20421;-63
2023/09/22 09:15:45;;;;;;;1.70;1.00;;;17.10;99.90;;;;;;5101917;28;20524;-64
2023/09/22 09:18:13;;;;;;;1.47;1.07;;;17.00;99.90;;;;;;5101289;28;20475;-63
2023/09/22 09:20:43;;;;;;;1.60;1.30;;;17.00;99.90;;;;;;5101612;28;20564;-64
2023/09/22 09:23:16;;;;;;;1.90;1.17;;;16.90;99.90;;;;;;5096741;28;20928;-63
2023/09/22 09:25:44;;;;;;;3.30;1.47;;;16.90;99.90;;;;;;5101394;28;20428;-64
2023/09/22 09:28:12;;;;;;;2.60;1.40;;;17.10;99.90;;;;;;5097006;28;20865;-65
2023/09/22 09:30:39;;;;;;;1.43;1.33;;;17.40;99.90;;;;;;5101961;28;20421;-64
2023/09/22 09:33:14;;;;;;;2.40;1.50;;;17.50;99.90;;;;;;5105525;28;20422;-64
2023/09/22 09:35:41;;;;;;;2.60;1.07;;;17.50;99.90;;;;;;5102459;28;20413;-64
2023/09/22 09:38:08;;;;;;;2.83;1.60;;;17.60;99.90;;;;;;5101023;28;20457;-63
2023/09/22 09:40:38;;;;;;;2.07;1.50;;;17.60;99.90;;;;;;5101444;28;20560;-64
2023/09/22 09:43:10;;;;;;;1.80;1.20;;;17.90;99.90;;;;;;5101016;28;20432;-64
2023/09/22 09:45:45;;;;;;;2.30;1.30;;;18.00;99.90;;;;;;5097216;28;20430;-64
2023/09/22 09:48:14;;;;;;;1.77;1.20;;;18.10;99.90;;;;;;5096734;28;20429;-63
2023/09/22 09:50:43;;;;;;;2.90;2.27;;;18.10;99.90;;;;;;5101440;28;20777;-63
2023/09/22 09:53:19;;;;;;;1.93;1.30;;;18.00;99.90;;;;;;5105272;27;20458;-64
2023/09/22 09:55:47;;;;;;;2.40;1.70;;;17.80;99.90;;;;;;5111792;27;20449;-63
2023/09/22 09:58:13;;;;;;;1.80;1.70;;;17.70;99.90;;;;;;5106976;27;20520;-64
2023/09/22 10:00:39;;;;;;;3.57;1.50;;;17.60;99.90;;;;;;5102204;27;20464;-64
2023/09/22 10:03:08;;;;;;;2.17;1.43;;;17.50;99.90;;;;;;5100223;28;20471;-63
2023/09/22 10:05:34;;;;;;;2.43;1.30;;;17.50;99.90;;;;;;5100965;27;20478;-63
2023/09/22 10:08:00;;;;;;;3.10;1.83;;;17.40;99.90;;;;;;5081660;28;20434;-64
2023/09/22 10:10:27;;;;;;;1.90;1.63;;;17.30;99.90;;;;;;5099002;28;20520;-64
2023/09/22 10:12:53;;;;;;;1.60;1.23;;;17.30;99.90;;;;;;5095653;28;20434;-63
2023/09/22 10:15:50;;;;;;;1.60;1.30;;;17.20;99.90;;;;;;5095847;28;21459;-64
2023/09/22 10:18:17;;;;;;;1.70;1.40;;;17.10;99.90;;;;;;5090738;28;20487;-63
2023/09/22 10:20:47;;;;;;;2.97;1.50;;;17.20;99.90;;;;;;5095747;28;20466;-63
2023/09/22 10:23:31;;;;;;;3.00;1.77;;;17.10;99.90;;;;;;5100439;28;20421;-64
2023/09/22 10:26:15;;;;;;;2.10;1.30;;;17.20;99.90;;;;;;5099026;28;20422;-63
2023/09/22 10:28:41;;;;;;;1.53;1.30;;;17.20;99.90;;;;;;5098440;28;21000;-64
2023/09/22 10:31:07;;;;;;;2.67;1.13;;;17.20;99.90;;;;;;5100917;28;20498;-63
2023/09/22 10:33:33;;;;;;;1.97;1.30;;;17.20;99.90;;;;;;5102574;27;20188;-63
2023/09/22 10:36:04;;;;;;;6.17;1.40;;;17.20;99.90;;;;;;5099652;28;20433;-63
2023/09/22 10:38:49;;;;;;;1.70;1.50;;;17.10;99.90;;;;;;5100426;28;20176;-63
2023/09/22 10:41:15;;;;;;;1.23;1.13;;;17.10;99.90;;;;;;5093512;28;20472;-63
2023/09/22 10:43:58;;;;;;;2.40;1.70;;;17.20;99.90;;;;;;5094919;28;20446;-63
2023/09/22 10:46:25;;;;;;;1.50;1.40;;;17.30;99.90;;;;;;5097167;28;20428;-64
2023/09/22 10:48:51;;;;;;;1.70;1.20;;;17.30;99.90;;;;;;5099696;28;20974;-64
2023/09/22 10:51:18;;;;;;;3.60;1.33;;;17.40;99.90;;;;;;5098878;28;20528;-63
2023/09/22 10:54:04;;;;;;;2.10;1.20;;;17.40;99.90;;;;;;5098777;28;20196;-64
2023/09/22 10:56:35;;;;;;;3.97;1.37;;;17.40;99.90;;;;;;5094289;28;20468;-64
2023/09/22 10:59:01;;;;;;;3.33;1.40;;;17.50;99.90;;;;;;5099635;28;20461;-63
2023/09/22 11:01:28;;;;;;;2.07;1.40;;;17.60;99.90;;;;;;5099367;28;20591;-63
2023/09/22 11:03:53;;;;;;;1.73;1.40;;;17.60;99.90;;;;;;5099625;28;20941;-63
2023/09/22 11:06:20;;;;;;;1.90;1.13;;;17.60;99.90;;;;;;5096443;28;20446;-64
2023/09/22 11:08:51;;;;;;;1.03;0.93;;;17.80;99.90;;;;;;5101913;28;20171;-63
2023/09/22 11:11:17;;;;;;;4.00;1.10;;;17.90;99.90;;;;;;5099042;28;20425;-63
2023/09/22 11:13:56;;;;;;;1.73;1.10;;;17.90;99.90;;;;;;5098949;28;20422;-64
2023/09/22 11:16:24;;;;;;;1.77;1.17;;;17.90;99.90;;;;;;5103241;28;20544;-64
2023/09/22 11:19:04;;;;;;;1.60;1.00;;;17.80;99.90;;;;;;5081115;28;21007;-63
2023/09/22 11:21:40;;;;;;;1.50;1.03;;;17.80;99.90;;;;;;5102030;28;20476;-64
2023/09/22 11:24:08;;;;;;;1.77;1.20;;;18.00;99.90;;;;;;5097350;28;20437;-63
2023/09/22 11:26:43;;;;;;;1.90;1.23;;;18.30;99.90;;;;;;5099961;28;20424;-64
2023/09/22 11:29:09;;;;;;;2.93;1.00;;;18.60;99.90;;;;;;5088250;28;20522;-64
2023/09/22 11:31:48;;;;;;;4.00;1.13;;;18.80;99.90;;;;;;5098608;28;20418;-64
2023/09/22 11:34:13;;;;;;;2.17;1.10;;;19.10;99.90;;;;;;5094256;28;20215;-63
2023/09/22 11:36:52;;;;;;;2.30;1.10;;;19.30;99.90;;;;;;5104024;28;20532;-64
2023/09/22 11:39:29;;;;;;;2.10;1.47;;;19.40;99.90;;;;;;5102517;28;20194;-64
2023/09/22 11:41:55;;;;;;;1.70;1.10;;;19.40;99.90;;;;;;5096299;28;20445;-63
2023/09/22 11:44:21;;;;;;;2.50;1.00;;;19.40;99.90;;;;;;5102738;28;20447;-63
2023/09/22 11:46:48;;;;;;;2.50;1.20;;;19.30;99.90;;;;;;5099172;28;20865;-64
2023/09/22 11:49:14;;;;;;;2.30;1.20;;;19.30;99.90;;;;;;5084462;28;20421;-64
2023/09/22 11:51:50;;;;;;;1.00;0.90;;;19.40;99.90;;;;;;5086497;28;21303;-64
2023/09/22 11:54:24;;;;;;;1.10;0.90;;;19.50;99.90;;;;;;5075487;28;20963;-63
2023/09/22 11:56:52;;;;;;;2.20;1.13;;;19.70;99.90;;;;;;5080487;28;20461;-64
2023/09/22 11:59:19;;;;;;;1.70;0.93;;;19.80;99.90;;;;;;5075242;28;20426;-63
2023/09/22 12:01:46;;;;;;;1.53;1.00;;;20.00;99.90;;;;;;5090348;28;20543;-64
2023/09/22 12:04:13;;;;;;;2.40;1.07;;;20.10;99.90;;;;;;5089829;28;20764;-64
2023/09/22 12:06:42;;;;;;;1.27;1.00;;;20.00;99.90;;;;;;5088187;28;20431;-64
2023/09/22 12:09:09;;;;;;;2.10;1.20;;;19.90;99.90;;;;;;5093478;28;20461;-64
2023/09/22 12:11:35;;;;;;;1.47;1.17;;;19.70;99.90;;;;;;5081721;28;20445;-64
2023/09/22 12:14:03;;;;;;;1.37;1.27;;;19.90;99.90;;;;;;5083185;28;20451;-64
2023/09/22 12:16:29;;;;;;;2.00;1.10;;;20.00;99.90;;;;;;5085118;28;21036;-64
2023/09/22 12:18:55;;;;;;;1.97;1.20;;;20.10;99.90;;;;;;5063129;28;20422;-64
2023/09/22 12:21:21;;;;;;;1.40;1.20;;;20.10;99.90;;;;;;5075935;28;20993;-64
2023/09/22 12:23:47;;;;;;;1.63;1.20;;;20.20;99.90;;;;;;5083035;28;20430;-64
2023/09/22 12:26:12;;;;;;;2.87;1.30;;;20.30;99.90;;;;;;5095246;28;20464;-64
2023/09/22 12:28:40;;;;;;;1.77;1.13;;;20.30;99.90;;;;;;5071250;28;20238;-64
2023/09/22 12:31:06;;;;;;;1.63;1.03;;;20.20;99.90;;;;;;5072644;28;20184;-64
2023/09/22 12:33:32;;;;;;;1.53;1.10;;;20.20;99.90;;;;;;5075792;28;20426;-64
2023/09/22 12:35:58;;;;;;;1.10;1.00;;;20.10;99.90;;;;;;5067606;28;20790;-63
2023/09/22 12:38:25;;;;;;;1.63;1.07;;;20.10;99.90;;;;;;5079821;28;20506;-64
2023/09/22 12:40:51;;;;;;;2.10;0.90;;;20.10;99.90;;;;;;5085682;28;20496;-63
2023/09/22 12:43:17;;;;;;;1.60;1.10;;;20.00;99.90;;;;;;5082919;28;20505;-64
2023/09/22 12:45:43;;;;;;;3.67;1.10;;;20.00;99.90;;;;;;5082342;28;20432;-64
2023/09/22 12:48:10;;;;;;;1.47;1.20;;;20.00;99.90;;;;;;5085051;28;20422;-64
2023/09/22 12:50:36;;;;;;;1.50;1.20;;;20.10;99.90;;;;;;5094384;28;20529;-64